sensor_id;sensor_type;location;lat;lon;timestamp;temperature;humidity
23089;DHT22;11713;48.506;8.966;2023-12-22T00:00:44;7.70;99.90
23089;DHT22;11713;48.506;8.966;2023-12-22T00:03:13;7.60;99.90
23089;DHT22;11713;48.506;8.966;2023-12-22T00:05:39;7.60;99.90
23089;DHT22;11713;48.506;8.966;2023-12-22T00:08:06;7.60;99.90
23089;DHT22;11713;48.506;8.966;2023-12-22T00:10:31;7.60;99.90
23089;DHT22;11713;48.506;8.966;2023-12-22T00:12:57;7.50;99.90
23089;DHT22;11713;48.506;8.966;2023-12-22T00:15:23;7.50;99.90
23089;DHT22;11713;48.506;8.966;2023-12-22T00:17:49;7.50;99.90
23089;DHT22;11713;48.506;8.966;2023-12-22T00:20:15;7.50;99.90
23089;DHT22;11713;48.506;8.966;2023-12-22T00:22:40;7.50;99.90
23089;DHT22;11713;48.506;8.966;2023-12-22T00:25:06;7.40;99.90
23089;DHT22;11713;48.506;8.966;2023-12-22T00:27:35;7.40;99.90
23089;DHT22;11713;48.506;8.966;2023-12-22T00:30:01;7.50;99.90
23089;DHT22;11713;48.506;8.966;2023-12-22T00:32:27;7.50;99.90
23089;DHT22;11713;48.506;8.966;2023-12-22T00:34:53;7.50;99.90
23089;DHT22;11713;48.506;8.966;2023-12-22T00:37:18;7.50;99.90
23089;DHT22;11713;48.506;8.966;2023-12-22T00:39:44;7.50;99.90
23089;DHT22;11713;48.506;8.966;2023-12-22T00:42:10;7.50;99.90
23089;DHT22;11713;48.506;8.966;2023-12-22T00:44:36;7.50;99.90
23089;DHT22;11713;48.506;8.966;2023-12-22T00:47:02;7.60;99.90
23089;DHT22;11713;48.506;8.966;2023-12-22T00:49:28;7.60;99.90
23089;DHT22;11713;48.506;8.966;2023-12-22T00:51:53;7.60;99.90
23089;DHT22;11713;48.506;8.966;2023-12-22T00:54:19;7.70;99.90
23089;DHT22;11713;48.506;8.966;2023-12-22T00:56:45;7.60;99.90
23089;DHT22;11713;48.506;8.966;2023-12-22T00:59:11;7.70;99.90
23089;DHT22;11713;48.506;8.966;2023-12-22T01:01:37;7.70;99.90
23089;DHT22;11713;48.506;8.966;2023-12-22T01:04:03;7.70;99.90
23089;DHT22;11713;48.506;8.966;2023-12-22T01:06:29;7.70;99.90
23089;DHT22;11713;48.506;8.966;2023-12-22T01:08:54;7.60;99.90
23089;DHT22;11713;48.506;8.966;2023-12-22T01:11:20;7.60;99.90
23089;DHT22;11713;48.506;8.966;2023-12-22T01:13:46;7.50;99.90
23089;DHT22;11713;48.506;8.966;2023-12-22T01:16:12;7.50;99.90
23089;DHT22;11713;48.506;8.966;2023-12-22T01:18:37;7.40;99.90
23089;DHT22;11713;48.506;8.966;2023-12-22T01:21:05;7.30;99.90
23089;DHT22;11713;48.506;8.966;2023-12-22T01:23:31;7.30;99.90
23089;DHT22;11713;48.506;8.966;2023-12-22T01:25:57;7.20;99.90
23089;DHT22;11713;48.506;8.966;2023-12-22T01:28:23;7.20;99.90
23089;DHT22;11713;48.506;8.966;2023-12-22T01:30:49;7.20;99.90
23089;DHT22;11713;48.506;8.966;2023-12-22T01:33:15;7.10;99.90
23089;DHT22;11713;48.506;8.966;2023-12-22T01:35:41;7.10;99.90
23089;DHT22;11713;48.506;8.966;2023-12-22T01:38:07;7.10;99.90
23089;DHT22;11713;48.506;8.966;2023-12-22T01:40:33;7.10;99.90
23089;DHT22;11713;48.506;8.966;2023-12-22T01:43:00;7.00;99.90
23089;DHT22;11713;48.506;8.966;2023-12-22T01:45:26;7.00;99.90
23089;DHT22;11713;48.506;8.966;2023-12-22T01:47:52;6.80;99.90
23089;DHT22;11713;48.506;8.966;2023-12-22T01:50:20;6.80;99.90
23089;DHT22;11713;48.506;8.966;2023-12-22T01:52:46;6.70;99.90
23089;DHT22;11713;48.506;8.966;2023-12-22T01:55:13;6.70;99.90
23089;DHT22;11713;48.506;8.966;2023-12-22T01:57:41;6.60;99.90
23089;DHT22;11713;48.506;8.966;2023-12-22T02:00:08;6.60;99.90
23089;DHT22;11713;48.506;8.966;2023-12-22T02:02:40;6.60;99.90
23089;DHT22;11713;48.506;8.966;2023-12-22T02:05:08;6.60;99.90
23089;DHT22;11713;48.506;8.966;2023-12-22T02:07:46;6.60;99.90
23089;DHT22;11713;48.506;8.966;2023-12-22T02:10:12;6.70;99.90
23089;DHT22;11713;48.506;8.966;2023-12-22T02:12:37;6.60;99.90
23089;DHT22;11713;48.506;8.966;2023-12-22T02:15:04;6.60;99.90
23089;DHT22;11713;48.506;8.966;2023-12-22T02:20:32;6.60;99.90
23089;DHT22;11713;48.506;8.966;2023-12-22T02:22:58;6.70;99.90
23089;DHT22;11713;48.506;8.966;2023-12-22T02:25:24;6.70;99.90
23089;DHT22;11713;48.506;8.966;2023-12-22T02:27:53;6.70;99.90
23089;DHT22;11713;48.506;8.966;2023-12-22T02:30:24;6.80;99.90
23089;DHT22;11713;48.506;8.966;2023-12-22T02:32:55;6.80;99.90
23089;DHT22;11713;48.506;8.966;2023-12-22T02:35:24;6.80;99.90
23089;DHT22;11713;48.506;8.966;2023-12-22T02:37:51;6.80;99.90
23089;DHT22;11713;48.506;8.966;2023-12-22T02:40:18;6.80;99.90
23089;DHT22;11713;48.506;8.966;2023-12-22T02:42:45;6.80;99.90
23089;DHT22;11713;48.506;8.966;2023-12-22T02:45:14;6.90;99.90
23089;DHT22;11713;48.506;8.966;2023-12-22T02:47:40;7.00;99.90
23089;DHT22;11713;48.506;8.966;2023-12-22T02:50:07;7.00;99.90
23089;DHT22;11713;48.506;8.966;2023-12-22T02:52:33;7.00;99.90
23089;DHT22;11713;48.506;8.966;2023-12-22T02:54:59;7.00;99.90
23089;DHT22;11713;48.506;8.966;2023-12-22T02:57:25;7.00;99.90
23089;DHT22;11713;48.506;8.966;2023-12-22T02:59:50;7.00;99.90
23089;DHT22;11713;48.506;8.966;2023-12-22T03:02:16;7.10;99.90
23089;DHT22;11713;48.506;8.966;2023-12-22T03:04:42;7.10;99.90
23089;DHT22;11713;48.506;8.966;2023-12-22T03:07:08;7.00;99.90
23089;DHT22;11713;48.506;8.966;2023-12-22T03:09:34;6.90;99.90
23089;DHT22;11713;48.506;8.966;2023-12-22T03:12:00;6.80;99.90
23089;DHT22;11713;48.506;8.966;2023-12-22T03:14:32;6.80;99.90
23089;DHT22;11713;48.506;8.966;2023-12-22T03:17:02;6.80;99.90
23089;DHT22;11713;48.506;8.966;2023-12-22T03:19:29;6.70;99.90
23089;DHT22;11713;48.506;8.966;2023-12-22T03:21:54;6.70;99.90
23089;DHT22;11713;48.506;8.966;2023-12-22T03:24:25;6.70;99.90
23089;DHT22;11713;48.506;8.966;2023-12-22T03:26:51;6.70;99.90
23089;DHT22;11713;48.506;8.966;2023-12-22T03:29:18;6.70;99.90
23089;DHT22;11713;48.506;8.966;2023-12-22T03:31:44;6.70;99.90
23089;DHT22;11713;48.506;8.966;2023-12-22T03:34:10;6.70;99.90
23089;DHT22;11713;48.506;8.966;2023-12-22T03:36:36;6.70;99.90
23089;DHT22;11713;48.506;8.966;2023-12-22T03:39:02;6.60;99.90
23089;DHT22;11713;48.506;8.966;2023-12-22T03:41:29;6.70;99.90
23089;DHT22;11713;48.506;8.966;2023-12-22T03:43:55;6.70;99.90
23089;DHT22;11713;48.506;8.966;2023-12-22T03:46:21;6.60;99.90
23089;DHT22;11713;48.506;8.966;2023-12-22T03:48:47;6.60;99.90
23089;DHT22;11713;48.506;8.966;2023-12-22T03:51:13;6.60;99.90
23089;DHT22;11713;48.506;8.966;2023-12-22T03:53:41;6.60;99.90
23089;DHT22;11713;48.506;8.966;2023-12-22T03:56:08;6.60;99.90
23089;DHT22;11713;48.506;8.966;2023-12-22T03:58:37;6.60;99.90
23089;DHT22;11713;48.506;8.966;2023-12-22T04:01:03;6.70;99.90
23089;DHT22;11713;48.506;8.966;2023-12-22T04:03:30;6.70;99.90
23089;DHT22;11713;48.506;8.966;2023-12-22T04:05:56;6.70;99.90
23089;DHT22;11713;48.506;8.966;2023-12-22T04:08:22;6.80;99.90
23089;DHT22;11713;48.506;8.966;2023-12-22T04:10:49;6.90;99.90
23089;DHT22;11713;48.506;8.966;2023-12-22T04:13:14;7.00;99.90
23089;DHT22;11713;48.506;8.966;2023-12-22T04:15:40;7.00;99.90
23089;DHT22;11713;48.506;8.966;2023-12-22T04:18:06;7.00;99.90
23089;DHT22;11713;48.506;8.966;2023-12-22T04:20:32;7.10;99.90
23089;DHT22;11713;48.506;8.966;2023-12-22T04:22:58;7.00;99.90
23089;DHT22;11713;48.506;8.966;2023-12-22T04:25:24;7.10;99.90
23089;DHT22;11713;48.506;8.966;2023-12-22T04:27:51;7.10;99.90
23089;DHT22;11713;48.506;8.966;2023-12-22T04:30:18;7.10;99.90
23089;DHT22;11713;48.506;8.966;2023-12-22T04:32:43;7.10;99.90
23089;DHT22;11713;48.506;8.966;2023-12-22T04:35:09;7.00;99.90
23089;DHT22;11713;48.506;8.966;2023-12-22T04:37:36;7.00;99.90
23089;DHT22;11713;48.506;8.966;2023-12-22T04:40:03;7.10;99.90
23089;DHT22;11713;48.506;8.966;2023-12-22T04:42:29;7.10;99.90
23089;DHT22;11713;48.506;8.966;2023-12-22T04:44:55;7.10;99.90
23089;DHT22;11713;48.506;8.966;2023-12-22T04:47:21;7.10;99.90
23089;DHT22;11713;48.506;8.966;2023-12-22T04:49:47;7.10;99.90
23089;DHT22;11713;48.506;8.966;2023-12-22T04:52:13;7.10;99.90
23089;DHT22;11713;48.506;8.966;2023-12-22T04:54:39;7.10;99.90
23089;DHT22;11713;48.506;8.966;2023-12-22T04:57:05;7.10;99.90
23089;DHT22;11713;48.506;8.966;2023-12-22T04:59:31;7.10;99.90
23089;DHT22;11713;48.506;8.966;2023-12-22T05:01:57;7.10;99.90
23089;DHT22;11713;48.506;8.966;2023-12-22T05:04:23;7.10;99.90
23089;DHT22;11713;48.506;8.966;2023-12-22T05:06:49;7.10;99.90
23089;DHT22;11713;48.506;8.966;2023-12-22T05:09:15;7.10;99.90
23089;DHT22;11713;48.506;8.966;2023-12-22T05:11:41;7.20;99.90
23089;DHT22;11713;48.506;8.966;2023-12-22T05:14:09;7.10;99.90
23089;DHT22;11713;48.506;8.966;2023-12-22T05:16:35;7.20;99.90
23089;DHT22;11713;48.506;8.966;2023-12-22T05:19:02;7.20;99.90
23089;DHT22;11713;48.506;8.966;2023-12-22T05:21:28;7.20;99.90
23089;DHT22;11713;48.506;8.966;2023-12-22T05:23:54;7.20;99.90
23089;DHT22;11713;48.506;8.966;2023-12-22T05:26:20;7.20;99.90
23089;DHT22;11713;48.506;8.966;2023-12-22T05:28:46;7.20;99.90
23089;DHT22;11713;48.506;8.966;2023-12-22T05:31:12;7.20;99.90
23089;DHT22;11713;48.506;8.966;2023-12-22T05:33:38;7.20;99.90
23089;DHT22;11713;48.506;8.966;2023-12-22T05:36:04;7.30;99.90
23089;DHT22;11713;48.506;8.966;2023-12-22T05:38:30;7.20;99.90
23089;DHT22;11713;48.506;8.966;2023-12-22T05:40:57;7.30;99.90
23089;DHT22;11713;48.506;8.966;2023-12-22T05:43:23;7.30;99.90
23089;DHT22;11713;48.506;8.966;2023-12-22T05:45:48;7.20;99.90
23089;DHT22;11713;48.506;8.966;2023-12-22T05:48:14;7.20;99.90
23089;DHT22;11713;48.506;8.966;2023-12-22T05:50:40;7.20;99.90
23089;DHT22;11713;48.506;8.966;2023-12-22T05:53:06;7.30;99.90
23089;DHT22;11713;48.506;8.966;2023-12-22T05:55:31;7.30;99.90
23089;DHT22;11713;48.506;8.966;2023-12-22T05:57:57;7.30;99.90
23089;DHT22;11713;48.506;8.966;2023-12-22T06:00:23;7.30;99.90
23089;DHT22;11713;48.506;8.966;2023-12-22T06:02:49;7.30;99.90
23089;DHT22;11713;48.506;8.966;2023-12-22T06:05:15;7.40;99.90
23089;DHT22;11713;48.506;8.966;2023-12-22T06:07:41;7.60;99.90
23089;DHT22;11713;48.506;8.966;2023-12-22T06:10:07;7.50;99.90
23089;DHT22;11713;48.506;8.966;2023-12-22T06:12:35;7.50;99.90
23089;DHT22;11713;48.506;8.966;2023-12-22T06:15:01;7.50;99.90
23089;DHT22;11713;48.506;8.966;2023-12-22T06:17:27;7.50;99.90
23089;DHT22;11713;48.506;8.966;2023-12-22T06:19:53;7.40;99.90
23089;DHT22;11713;48.506;8.966;2023-12-22T06:22:19;7.50;99.90
23089;DHT22;11713;48.506;8.966;2023-12-22T06:24:45;7.50;99.90
23089;DHT22;11713;48.506;8.966;2023-12-22T06:27:11;7.50;99.90
23089;DHT22;11713;48.506;8.966;2023-12-22T06:29:36;7.50;99.90
23089;DHT22;11713;48.506;8.966;2023-12-22T06:32:02;7.40;99.90
23089;DHT22;11713;48.506;8.966;2023-12-22T06:34:31;7.40;99.90
23089;DHT22;11713;48.506;8.966;2023-12-22T06:36:57;7.40;99.90
23089;DHT22;11713;48.506;8.966;2023-12-22T06:39:25;7.40;99.90
23089;DHT22;11713;48.506;8.966;2023-12-22T06:41:50;7.40;99.90
23089;DHT22;11713;48.506;8.966;2023-12-22T06:44:16;7.30;99.90
23089;DHT22;11713;48.506;8.966;2023-12-22T06:46:42;7.40;99.90
23089;DHT22;11713;48.506;8.966;2023-12-22T06:49:08;7.40;99.90
23089;DHT22;11713;48.506;8.966;2023-12-22T06:51:34;7.40;99.90
23089;DHT22;11713;48.506;8.966;2023-12-22T06:54:01;7.40;99.90
23089;DHT22;11713;48.506;8.966;2023-12-22T06:56:31;7.40;99.90
23089;DHT22;11713;48.506;8.966;2023-12-22T06:58:57;7.40;99.90
23089;DHT22;11713;48.506;8.966;2023-12-22T07:01:28;7.40;99.90
23089;DHT22;11713;48.506;8.966;2023-12-22T07:03:55;7.50;99.90
23089;DHT22;11713;48.506;8.966;2023-12-22T07:06:24;7.50;99.90
23089;DHT22;11713;48.506;8.966;2023-12-22T07:11:37;7.50;99.90
23089;DHT22;11713;48.506;8.966;2023-12-22T07:14:03;7.40;99.90
23089;DHT22;11713;48.506;8.966;2023-12-22T07:16:29;7.40;99.90
23089;DHT22;11713;48.506;8.966;2023-12-22T07:18:55;7.30;99.90
23089;DHT22;11713;48.506;8.966;2023-12-22T07:21:21;7.30;99.90
23089;DHT22;11713;48.506;8.966;2023-12-22T07:23:47;7.30;99.90
23089;DHT22;11713;48.506;8.966;2023-12-22T07:26:13;7.30;99.90
23089;DHT22;11713;48.506;8.966;2023-12-22T07:28:39;7.30;99.90
23089;DHT22;11713;48.506;8.966;2023-12-22T07:31:05;7.20;99.90
23089;DHT22;11713;48.506;8.966;2023-12-22T07:33:31;7.30;99.90
23089;DHT22;11713;48.506;8.966;2023-12-22T07:35:57;7.30;99.90
23089;DHT22;11713;48.506;8.966;2023-12-22T07:38:23;7.30;99.90
23089;DHT22;11713;48.506;8.966;2023-12-22T07:40:49;7.30;99.90
23089;DHT22;11713;48.506;8.966;2023-12-22T07:43:15;7.30;99.90
23089;DHT22;11713;48.506;8.966;2023-12-22T07:45:41;7.30;99.90
23089;DHT22;11713;48.506;8.966;2023-12-22T07:48:07;7.30;99.90
23089;DHT22;11713;48.506;8.966;2023-12-22T07:50:33;7.30;99.90
23089;DHT22;11713;48.506;8.966;2023-12-22T07:52:59;7.30;99.90
23089;DHT22;11713;48.506;8.966;2023-12-22T07:55:25;7.30;99.90
23089;DHT22;11713;48.506;8.966;2023-12-22T07:57:51;7.30;99.90
23089;DHT22;11713;48.506;8.966;2023-12-22T08:00:18;7.30;99.90
23089;DHT22;11713;48.506;8.966;2023-12-22T08:02:44;7.30;99.90
23089;DHT22;11713;48.506;8.966;2023-12-22T08:05:10;7.30;99.90
23089;DHT22;11713;48.506;8.966;2023-12-22T08:07:36;7.30;99.90
23089;DHT22;11713;48.506;8.966;2023-12-22T08:10:03;7.30;99.90
23089;DHT22;11713;48.506;8.966;2023-12-22T08:12:29;7.30;99.90
23089;DHT22;11713;48.506;8.966;2023-12-22T08:14:57;7.30;99.90
23089;DHT22;11713;48.506;8.966;2023-12-22T08:17:23;7.30;99.90
23089;DHT22;11713;48.506;8.966;2023-12-22T08:19:49;7.30;99.90
23089;DHT22;11713;48.506;8.966;2023-12-22T08:22:15;7.40;99.90
23089;DHT22;11713;48.506;8.966;2023-12-22T08:24:41;7.40;99.90
23089;DHT22;11713;48.506;8.966;2023-12-22T08:27:08;7.40;99.90
23089;DHT22;11713;48.506;8.966;2023-12-22T08:29:34;7.40;99.90
23089;DHT22;11713;48.506;8.966;2023-12-22T08:32:00;7.50;99.90
23089;DHT22;11713;48.506;8.966;2023-12-22T08:34:27;7.50;99.90
23089;DHT22;11713;48.506;8.966;2023-12-22T08:36:53;7.50;99.90
23089;DHT22;11713;48.506;8.966;2023-12-22T08:39:19;7.50;99.90
23089;DHT22;11713;48.506;8.966;2023-12-22T08:41:45;7.60;99.90
23089;DHT22;11713;48.506;8.966;2023-12-22T08:44:11;7.60;99.90
23089;DHT22;11713;48.506;8.966;2023-12-22T08:46:40;7.70;99.90
23089;DHT22;11713;48.506;8.966;2023-12-22T08:49:07;7.70;99.90
23089;DHT22;11713;48.506;8.966;2023-12-22T08:51:34;7.70;99.90
23089;DHT22;11713;48.506;8.966;2023-12-22T08:54:00;7.70;99.90
23089;DHT22;11713;48.506;8.966;2023-12-22T08:56:26;7.60;99.90
23089;DHT22;11713;48.506;8.966;2023-12-22T08:58:54;7.60;99.90
23089;DHT22;11713;48.506;8.966;2023-12-22T09:01:21;7.50;99.90
23089;DHT22;11713;48.506;8.966;2023-12-22T09:03:48;7.50;99.90
23089;DHT22;11713;48.506;8.966;2023-12-22T09:06:17;7.40;99.90
23089;DHT22;11713;48.506;8.966;2023-12-22T09:08:44;7.40;99.90
23089;DHT22;11713;48.506;8.966;2023-12-22T09:11:12;7.40;99.90
23089;DHT22;11713;48.506;8.966;2023-12-22T09:13:39;7.30;99.90
23089;DHT22;11713;48.506;8.966;2023-12-22T09:16:05;7.30;99.90
23089;DHT22;11713;48.506;8.966;2023-12-22T09:18:34;7.30;99.90
23089;DHT22;11713;48.506;8.966;2023-12-22T09:21:00;7.30;99.90
23089;DHT22;11713;48.506;8.966;2023-12-22T09:23:27;7.30;99.90
23089;DHT22;11713;48.506;8.966;2023-12-22T09:25:53;7.40;99.90
23089;DHT22;11713;48.506;8.966;2023-12-22T09:28:19;7.40;99.90
23089;DHT22;11713;48.506;8.966;2023-12-22T09:30:45;7.40;99.90
23089;DHT22;11713;48.506;8.966;2023-12-22T09:33:10;7.40;99.90
23089;DHT22;11713;48.506;8.966;2023-12-22T09:35:37;7.40;99.90
23089;DHT22;11713;48.506;8.966;2023-12-22T09:38:03;7.40;99.90
23089;DHT22;11713;48.506;8.966;2023-12-22T09:40:29;7.40;99.90
23089;DHT22;11713;48.506;8.966;2023-12-22T09:42:57;7.40;99.90
23089;DHT22;11713;48.506;8.966;2023-12-22T09:45:24;7.50;99.90
23089;DHT22;11713;48.506;8.966;2023-12-22T09:47:51;7.50;99.90
23089;DHT22;11713;48.506;8.966;2023-12-22T09:50:19;7.60;99.90
23089;DHT22;11713;48.506;8.966;2023-12-22T09:52:46;7.60;99.90
23089;DHT22;11713;48.506;8.966;2023-12-22T09:55:15;7.60;99.90
23089;DHT22;11713;48.506;8.966;2023-12-22T09:57:43;7.60;99.90
23089;DHT22;11713;48.506;8.966;2023-12-22T10:00:11;7.60;99.90
23089;DHT22;11713;48.506;8.966;2023-12-22T10:02:39;7.60;99.90
23089;DHT22;11713;48.506;8.966;2023-12-22T10:05:05;7.60;99.90
23089;DHT22;11713;48.506;8.966;2023-12-22T10:07:31;7.70;99.90
23089;DHT22;11713;48.506;8.966;2023-12-22T10:09:59;7.60;99.90
23089;DHT22;11713;48.506;8.966;2023-12-22T10:12:27;7.70;99.90
23089;DHT22;11713;48.506;8.966;2023-12-22T10:14:55;7.70;99.90
23089;DHT22;11713;48.506;8.966;2023-12-22T10:17:22;7.70;99.90
23089;DHT22;11713;48.506;8.966;2023-12-22T10:19:48;7.70;99.90
23089;DHT22;11713;48.506;8.966;2023-12-22T10:22:15;7.70;99.90
23089;DHT22;11713;48.506;8.966;2023-12-22T10:24:47;7.60;99.90
23089;DHT22;11713;48.506;8.966;2023-12-22T10:27:15;7.70;99.90
23089;DHT22;11713;48.506;8.966;2023-12-22T10:29:50;7.70;99.90
23089;DHT22;11713;48.506;8.966;2023-12-22T10:32:16;7.60;99.90
23089;DHT22;11713;48.506;8.966;2023-12-22T10:34:46;7.70;99.90
23089;DHT22;11713;48.506;8.966;2023-12-22T10:37:12;7.60;99.90
23089;DHT22;11713;48.506;8.966;2023-12-22T10:39:42;7.60;99.90
23089;DHT22;11713;48.506;8.966;2023-12-22T10:42:09;7.60;99.90
23089;DHT22;11713;48.506;8.966;2023-12-22T10:44:35;7.60;99.90
23089;DHT22;11713;48.506;8.966;2023-12-22T10:47:07;7.60;99.90
23089;DHT22;11713;48.506;8.966;2023-12-22T10:49:33;7.60;99.90
23089;DHT22;11713;48.506;8.966;2023-12-22T10:52:00;7.60;99.90
23089;DHT22;11713;48.506;8.966;2023-12-22T10:54:26;7.60;99.90
23089;DHT22;11713;48.506;8.966;2023-12-22T10:56:58;7.60;99.90
23089;DHT22;11713;48.506;8.966;2023-12-22T10:59:28;7.50;99.90
23089;DHT22;11713;48.506;8.966;2023-12-22T11:01:57;7.50;99.90
23089;DHT22;11713;48.506;8.966;2023-12-22T11:04:30;7.50;99.90
23089;DHT22;11713;48.506;8.966;2023-12-22T11:07:03;7.50;99.90
23089;DHT22;11713;48.506;8.966;2023-12-22T11:09:32;7.50;99.90
23089;DHT22;11713;48.506;8.966;2023-12-22T11:12:02;7.50;99.90
23089;DHT22;11713;48.506;8.966;2023-12-22T11:14:32;7.50;99.90
23089;DHT22;11713;48.506;8.966;2023-12-22T11:17:04;7.50;99.90
23089;DHT22;11713;48.506;8.966;2023-12-22T11:19:31;7.50;99.90
23089;DHT22;11713;48.506;8.966;2023-12-22T11:22:03;7.50;99.90
23089;DHT22;11713;48.506;8.966;2023-12-22T11:24:31;7.50;99.90
23089;DHT22;11713;48.506;8.966;2023-12-22T11:26:58;7.50;99.90
23089;DHT22;11713;48.506;8.966;2023-12-22T11:29:26;7.40;99.90
23089;DHT22;11713;48.506;8.966;2023-12-22T11:31:55;7.40;99.90
23089;DHT22;11713;48.506;8.966;2023-12-22T11:34:23;7.50;99.90
23089;DHT22;11713;48.506;8.966;2023-12-22T11:36:54;7.50;99.90
23089;DHT22;11713;48.506;8.966;2023-12-22T11:39:22;7.50;99.90
23089;DHT22;11713;48.506;8.966;2023-12-22T11:41:49;7.50;99.90
23089;DHT22;11713;48.506;8.966;2023-12-22T11:44:17;7.50;99.90
23089;DHT22;11713;48.506;8.966;2023-12-22T11:46:43;7.50;99.90
23089;DHT22;11713;48.506;8.966;2023-12-22T11:49:11;7.50;99.90
23089;DHT22;11713;48.506;8.966;2023-12-22T11:51:40;7.50;99.90
23089;DHT22;11713;48.506;8.966;2023-12-22T11:57:30;7.50;99.90
23089;DHT22;11713;48.506;8.966;2023-12-22T12:02:55;7.50;99.90
23089;DHT22;11713;48.506;8.966;2023-12-22T12:05:22;7.60;99.90
23089;DHT22;11713;48.506;8.966;2023-12-22T12:07:48;7.60;99.90
23089;DHT22;11713;48.506;8.966;2023-12-22T12:13:12;7.60;99.90
23089;DHT22;11713;48.506;8.966;2023-12-22T12:15:41;7.50;99.90
23089;DHT22;11713;48.506;8.966;2023-12-22T12:18:11;7.60;99.90
23089;DHT22;11713;48.506;8.966;2023-12-22T12:20:38;7.50;99.90
23089;DHT22;11713;48.506;8.966;2023-12-22T12:23:05;7.50;99.90
23089;DHT22;11713;48.506;8.966;2023-12-22T12:25:32;7.60;99.90
23089;DHT22;11713;48.506;8.966;2023-12-22T12:28:05;7.60;99.90
23089;DHT22;11713;48.506;8.966;2023-12-22T12:30:32;7.60;99.90
23089;DHT22;11713;48.506;8.966;2023-12-22T12:33:06;7.60;99.90
23089;DHT22;11713;48.506;8.966;2023-12-22T12:35:45;7.60;99.90
23089;DHT22;11713;48.506;8.966;2023-12-22T12:38:12;7.70;99.90
23089;DHT22;11713;48.506;8.966;2023-12-22T12:40:43;7.60;99.90
23089;DHT22;11713;48.506;8.966;2023-12-22T12:43:14;7.70;99.90
23089;DHT22;11713;48.506;8.966;2023-12-22T12:45:42;7.70;99.90
23089;DHT22;11713;48.506;8.966;2023-12-22T12:48:08;7.70;99.90
23089;DHT22;11713;48.506;8.966;2023-12-22T12:50:34;7.70;99.90
23089;DHT22;11713;48.506;8.966;2023-12-22T12:53:00;7.70;99.90
23089;DHT22;11713;48.506;8.966;2023-12-22T12:55:26;7.70;99.90
23089;DHT22;11713;48.506;8.966;2023-12-22T12:57:54;7.70;99.90
23089;DHT22;11713;48.506;8.966;2023-12-22T13:00:27;7.70;99.90
23089;DHT22;11713;48.506;8.966;2023-12-22T13:03:11;7.70;99.90
23089;DHT22;11713;48.506;8.966;2023-12-22T13:05:37;7.80;99.90
23089;DHT22;11713;48.506;8.966;2023-12-22T13:08:07;7.80;99.90
23089;DHT22;11713;48.506;8.966;2023-12-22T13:10:37;7.80;99.90
23089;DHT22;11713;48.506;8.966;2023-12-22T13:13:04;7.80;99.90
23089;DHT22;11713;48.506;8.966;2023-12-22T13:15:32;7.80;99.90
23089;DHT22;11713;48.506;8.966;2023-12-22T13:17:58;7.80;99.90
23089;DHT22;11713;48.506;8.966;2023-12-22T13:20:24;7.80;99.90
23089;DHT22;11713;48.506;8.966;2023-12-22T13:22:52;7.80;99.90
23089;DHT22;11713;48.506;8.966;2023-12-22T13:25:19;7.80;99.90
23089;DHT22;11713;48.506;8.966;2023-12-22T13:27:48;7.80;99.90
23089;DHT22;11713;48.506;8.966;2023-12-22T13:30:33;7.90;99.90
23089;DHT22;11713;48.506;8.966;2023-12-22T13:32:59;7.90;99.90
23089;DHT22;11713;48.506;8.966;2023-12-22T13:35:26;7.90;99.90
23089;DHT22;11713;48.506;8.966;2023-12-22T13:37:54;7.90;99.90
23089;DHT22;11713;48.506;8.966;2023-12-22T13:40:20;7.90;99.90
23089;DHT22;11713;48.506;8.966;2023-12-22T13:42:57;8.00;99.90
23089;DHT22;11713;48.506;8.966;2023-12-22T13:45:26;8.00;99.90
23089;DHT22;11713;48.506;8.966;2023-12-22T13:47:52;8.00;99.90
23089;DHT22;11713;48.506;8.966;2023-12-22T13:50:19;8.00;99.90
23089;DHT22;11713;48.506;8.966;2023-12-22T13:52:49;8.00;99.90
23089;DHT22;11713;48.506;8.966;2023-12-22T13:55:17;8.00;99.90
23089;DHT22;11713;48.506;8.966;2023-12-22T13:57:45;8.00;99.90
23089;DHT22;11713;48.506;8.966;2023-12-22T14:02:49;8.10;99.90
23089;DHT22;11713;48.506;8.966;2023-12-22T14:05:16;8.10;99.90
23089;DHT22;11713;48.506;8.966;2023-12-22T14:07:43;8.10;99.90
23089;DHT22;11713;48.506;8.966;2023-12-22T14:10:10;8.10;99.90
23089;DHT22;11713;48.506;8.966;2023-12-22T14:12:37;8.10;99.90
23089;DHT22;11713;48.506;8.966;2023-12-22T14:15:06;8.10;99.90
23089;DHT22;11713;48.506;8.966;2023-12-22T14:17:33;8.10;99.90
23089;DHT22;11713;48.506;8.966;2023-12-22T14:20:00;8.10;99.90
23089;DHT22;11713;48.506;8.966;2023-12-22T14:22:27;8.10;99.90
23089;DHT22;11713;48.506;8.966;2023-12-22T14:24:53;8.10;99.90
23089;DHT22;11713;48.506;8.966;2023-12-22T14:27:22;8.10;99.90
23089;DHT22;11713;48.506;8.966;2023-12-22T14:29:49;8.20;99.90
23089;DHT22;11713;48.506;8.966;2023-12-22T14:32:14;8.10;99.90
23089;DHT22;11713;48.506;8.966;2023-12-22T14:34:41;8.10;99.90
23089;DHT22;11713;48.506;8.966;2023-12-22T14:37:06;8.10;99.90
23089;DHT22;11713;48.506;8.966;2023-12-22T14:39:32;8.10;99.90
23089;DHT22;11713;48.506;8.966;2023-12-22T14:41:59;8.10;99.90
23089;DHT22;11713;48.506;8.966;2023-12-22T14:44:25;8.10;99.90
23089;DHT22;11713;48.506;8.966;2023-12-22T14:46:51;8.10;99.90
23089;DHT22;11713;48.506;8.966;2023-12-22T14:49:16;8.10;99.90
23089;DHT22;11713;48.506;8.966;2023-12-22T14:51:43;8.10;99.90
23089;DHT22;11713;48.506;8.966;2023-12-22T14:54:11;8.10;99.90
23089;DHT22;11713;48.506;8.966;2023-12-22T14:56:40;8.10;99.90
23089;DHT22;11713;48.506;8.966;2023-12-22T14:59:12;8.10;99.90
23089;DHT22;11713;48.506;8.966;2023-12-22T15:01:44;8.10;99.90
23089;DHT22;11713;48.506;8.966;2023-12-22T15:04:15;8.10;99.90
23089;DHT22;11713;48.506;8.966;2023-12-22T15:06:41;8.20;99.90
23089;DHT22;11713;48.506;8.966;2023-12-22T15:09:10;8.20;99.90
23089;DHT22;11713;48.506;8.966;2023-12-22T15:11:43;8.30;99.90
23089;DHT22;11713;48.506;8.966;2023-12-22T15:14:10;8.20;99.90
23089;DHT22;11713;48.506;8.966;2023-12-22T15:16:43;8.30;99.90
23089;DHT22;11713;48.506;8.966;2023-12-22T15:19:11;8.20;99.90
23089;DHT22;11713;48.506;8.966;2023-12-22T15:21:38;8.30;99.90
23089;DHT22;11713;48.506;8.966;2023-12-22T15:24:07;8.20;99.90
23089;DHT22;11713;48.506;8.966;2023-12-22T15:26:33;8.30;99.90
23089;DHT22;11713;48.506;8.966;2023-12-22T15:29:00;8.20;99.90
23089;DHT22;11713;48.506;8.966;2023-12-22T15:31:25;8.20;99.90
23089;DHT22;11713;48.506;8.966;2023-12-22T15:33:51;8.20;99.90
23089;DHT22;11713;48.506;8.966;2023-12-22T15:36:18;8.30;99.90
23089;DHT22;11713;48.506;8.966;2023-12-22T15:38:47;8.30;99.90
23089;DHT22;11713;48.506;8.966;2023-12-22T15:41:13;8.20;99.90
23089;DHT22;11713;48.506;8.966;2023-12-22T15:43:40;8.30;99.90
23089;DHT22;11713;48.506;8.966;2023-12-22T15:46:09;8.20;99.90
23089;DHT22;11713;48.506;8.966;2023-12-22T15:48:36;8.30;99.90
23089;DHT22;11713;48.506;8.966;2023-12-22T15:51:09;8.30;99.90
23089;DHT22;11713;48.506;8.966;2023-12-22T15:53:40;8.30;99.90
23089;DHT22;11713;48.506;8.966;2023-12-22T15:56:10;8.30;99.90
23089;DHT22;11713;48.506;8.966;2023-12-22T15:58:38;8.30;99.90
23089;DHT22;11713;48.506;8.966;2023-12-22T16:01:06;8.30;99.90